createdAt,value
2023-11-19T00:01:00.447Z,100188.59
2023-11-19T00:06:05.605Z,100182.78
2023-11-19T00:11:16.873Z,100170.00
2023-11-19T00:16:20.292Z,100178.19
2023-11-19T00:21:24.797Z,100159.03
2023-11-19T00:26:30.695Z,100138.53
2023-11-19T00:31:34.435Z,100128.81
2023-11-19T00:36:37.869Z,100116.50
2023-11-19T00:41:42.964Z,100100.31
2023-11-19T00:46:46.396Z,100076.78
2023-11-19T00:51:50.354Z,100068.16
2023-11-19T00:56:54.986Z,100053.75
2023-11-19T01:01:59.065Z,100038.47
2023-11-19T01:07:06.300Z,100034.00
2023-11-19T01:12:12.857Z,100026.41
2023-11-19T01:17:17.577Z,100001.13
2023-11-19T01:22:24.417Z,99991.78
2023-11-19T01:27:29.446Z,99971.09
2023-11-19T01:32:33.558Z,99960.34
2023-11-19T01:37:37.135Z,99941.44
2023-11-19T01:42:43.150Z,99927.28
2023-11-19T01:47:46.523Z,99913.53
2023-11-19T01:52:50.284Z,99921.13
2023-11-19T01:57:56.865Z,99909.63
2023-11-19T02:03:02.073Z,99904.44
2023-11-19T02:08:05.947Z,99890.63
2023-11-19T02:13:11.428Z,99858.47
2023-11-19T02:18:22.932Z,99849.97
2023-11-19T02:23:28.528Z,99863.06
2023-11-19T02:28:34.154Z,99836.81
2023-11-19T02:33:37.709Z,99810.72
2023-11-19T02:38:41.076Z,99796.88
2023-11-19T02:43:45.746Z,99793.22
2023-11-19T02:48:49.008Z,99762.34
2023-11-19T02:53:52.214Z,99744.25
2023-11-19T02:58:56.889Z,99754.66
2023-11-19T03:04:02.916Z,99728.66
2023-11-19T03:09:11.534Z,99727.59
2023-11-19T03:14:16.171Z,99712.94
2023-11-19T03:24:25.807Z,99699.31
2023-11-19T03:29:30.765Z,99686.16
2023-11-19T03:34:34.625Z,99693.72
2023-11-19T03:39:38.405Z,99691.34
2023-11-19T03:44:43.018Z,99684.22
2023-11-19T03:49:50.412Z,99675.09
2023-11-19T03:54:54.372Z,99668.84
2023-11-19T03:59:59.641Z,99664.06
2023-11-19T04:05:05.775Z,99655.63
2023-11-19T04:10:09.948Z,99650.16
2023-11-19T04:15:15.649Z,99640.34
2023-11-19T04:20:19.135Z,99641.56
2023-11-19T04:25:22.666Z,99621.25
2023-11-19T04:30:27.399Z,99629.47
2023-11-19T04:35:30.676Z,99619.63
2023-11-19T04:40:34.997Z,99613.91
2023-11-19T04:45:40.875Z,99584.03
2023-11-19T04:50:44.108Z,99598.19
2023-11-19T04:55:47.494Z,99578.06
2023-11-19T05:00:52.170Z,99571.63
2023-11-19T05:05:55.865Z,99560.81
2023-11-19T05:11:00.891Z,99553.41
2023-11-19T05:16:05.967Z,99545.47
2023-11-19T05:21:09.671Z,99564.41
2023-11-19T05:26:20.016Z,99531.22
2023-11-19T05:31:24.833Z,99554.81
2023-11-19T05:36:28.887Z,99557.31
2023-11-19T05:41:32.484Z,99559.63
2023-11-19T05:46:41.760Z,99562.41
2023-11-19T05:51:45.052Z,99553.63
2023-11-19T05:56:51.108Z,99518.78
2023-11-19T06:01:55.889Z,99506.44
2023-11-19T06:06:59.171Z,99526.88
2023-11-19T06:12:03.455Z,99534.97
2023-11-19T06:17:09.759Z,99536.19
2023-11-19T06:22:13.408Z,99517.00
2023-11-19T06:27:16.837Z,99532.09
2023-11-19T06:32:21.436Z,99526.19
2023-11-19T06:37:24.856Z,99541.00
2023-11-19T06:42:28.152Z,99524.94
2023-11-19T06:47:32.814Z,99508.75
2023-11-19T06:52:36.160Z,99521.78
2023-11-19T06:57:39.563Z,99505.19
2023-11-19T07:02:45.803Z,99534.31
2023-11-19T07:07:49.297Z,99541.69
2023-11-19T07:12:52.579Z,99517.97
2023-11-19T07:23:05.790Z,99549.94
2023-11-19T07:28:09.085Z,99541.56
2023-11-19T07:33:14.936Z,99542.09
2023-11-19T07:38:18.213Z,99544.28
2023-11-19T07:43:21.564Z,99547.13
2023-11-19T07:48:26.448Z,99554.78
2023-11-19T07:53:30.286Z,99568.66
2023-11-19T07:58:33.634Z,99574.25
2023-11-19T08:03:38.513Z,99559.22
2023-11-19T08:08:44.615Z,99573.19
2023-11-19T08:13:48.545Z,99572.19
2023-11-19T08:18:53.382Z,99568.03
2023-11-19T08:23:56.890Z,99571.28
2023-11-19T08:29:00.707Z,99568.22
2023-11-19T08:34:05.555Z,99566.09
2023-11-19T08:39:09.958Z,99582.69
2023-11-19T08:44:13.999Z,99580.75
2023-11-19T08:49:19.198Z,99587.78
2023-11-19T08:54:24.164Z,99578.00
2023-11-19T08:59:27.579Z,99582.56
2023-11-19T09:04:36.519Z,99591.75
2023-11-19T09:09:39.843Z,99601.69
2023-11-19T09:14:43.685Z,99601.66
2023-11-19T09:19:51.152Z,99594.34
2023-11-19T09:24:54.408Z,99599.25
2023-11-19T09:29:59.747Z,99602.13
2023-11-19T09:35:05.641Z,99600.06
2023-11-19T09:40:10.590Z,99603.19
2023-11-19T09:45:19.372Z,99610.22
2023-11-19T09:50:24.170Z,99606.81
2023-11-19T09:55:28.249Z,99590.63
2023-11-19T10:00:33.100Z,99584.09
2023-11-19T10:05:39.426Z,99578.91
2023-11-19T10:10:42.710Z,99582.03
2023-11-19T10:15:46.570Z,99575.81
2023-11-19T10:20:51.761Z,99577.44
2023-11-19T10:25:56.123Z,99568.41
2023-11-19T10:30:59.329Z,99557.00
2023-11-19T10:36:05.321Z,99546.84
2023-11-19T10:41:11.893Z,99545.22
2023-11-19T10:46:22.200Z,99539.50
2023-11-19T10:51:27.069Z,99546.59
2023-11-19T10:56:33.296Z,99530.06
2023-11-19T11:01:42.924Z,99518.88
2023-11-19T11:06:50.599Z,99518.47
2023-11-19T11:11:54.817Z,99534.59
2023-11-19T11:17:00.535Z,99536.97
2023-11-19T11:22:07.566Z,99529.72
2023-11-19T11:27:38.651Z,99527.09
2023-11-19T11:32:47.780Z,99538.63
2023-11-19T11:37:58.345Z,99535.63
2023-11-19T11:43:01.767Z,99527.38
2023-11-19T11:48:13.506Z,99533.50
2023-11-19T11:53:24.209Z,99538.25
2023-11-19T11:58:32.275Z,99537.19
2023-11-19T12:03:36.761Z,99535.13
2023-11-19T12:13:56.800Z,99516.97
2023-11-19T12:19:06.860Z,99520.13
2023-11-19T12:24:12.697Z,99511.59
2023-11-19T12:29:16.625Z,99505.47
2023-11-19T12:34:25.943Z,99499.16
2023-11-19T12:39:33.630Z,99497.25
2023-11-19T12:44:36.909Z,99501.81
2023-11-19T12:49:40.311Z,99502.28
2023-11-19T12:54:45.119Z,99505.03
2023-11-19T12:59:58.114Z,99509.75
2023-11-19T13:05:02.291Z,99509.38
2023-11-19T13:10:11.397Z,99510.44
2023-11-19T13:15:26.618Z,99510.72
2023-11-19T13:20:30.336Z,99511.38
2023-11-19T13:25:35.485Z,99509.75
2023-11-19T13:30:38.793Z,99510.03
2023-11-19T13:35:43.388Z,99507.97
2023-11-19T13:40:47.968Z,99511.31
2023-11-19T13:45:52.071Z,99506.25
2023-11-19T13:50:55.668Z,99504.13
2023-11-19T13:56:00.748Z,99505.66
2023-11-19T14:01:04.268Z,99515.22
2023-11-19T14:06:09.688Z,99529.19
2023-11-19T14:11:14.620Z,99523.78
2023-11-19T14:16:18.030Z,99525.94
2023-11-19T14:21:21.445Z,99523.47
2023-11-19T14:26:26.717Z,99521.47
2023-11-19T14:31:30.793Z,99517.56
2023-11-19T14:36:34.583Z,99511.66
2023-11-19T14:41:40.037Z,99514.94
2023-11-19T14:46:43.367Z,99516.41
2023-11-19T14:51:49.109Z,99521.66
2023-11-19T14:56:54.329Z,99505.06
2023-11-19T15:01:58.507Z,99511.81
2023-11-19T15:07:02.116Z,99509.34
2023-11-19T15:12:08.350Z,99517.91
2023-11-19T15:17:12.320Z,99519.69
2023-11-19T15:22:15.634Z,99523.78
2023-11-19T15:27:20.275Z,99519.38
2023-11-19T15:32:23.643Z,99517.41
2023-11-19T15:37:26.910Z,99520.19
2023-11-19T15:42:33.600Z,99532.69
2023-11-19T15:47:38.142Z,99536.78
2023-11-19T15:52:41.670Z,99543.34
2023-11-19T15:57:47.029Z,99535.81
2023-11-19T16:02:50.967Z,99536.16
2023-11-19T16:07:54.728Z,99541.53
2023-11-19T16:13:00.088Z,99538.41
2023-11-19T16:18:03.478Z,99534.97
2023-11-19T16:23:06.801Z,99555.13
2023-11-19T16:28:11.839Z,99548.72
2023-11-19T16:33:21.319Z,99547.41
2023-11-19T16:38:32.689Z,99550.19
2023-11-19T16:43:37.414Z,99556.41
2023-11-19T16:48:40.902Z,99564.44
2023-11-19T16:53:48.570Z,99570.19
2023-11-19T16:58:53.578Z,99569.34
2023-11-19T17:03:58.999Z,99579.84
2023-11-19T17:09:04.996Z,99580.03
2023-11-19T17:14:10.367Z,99570.34
2023-11-19T17:19:15.170Z,99573.94
2023-11-19T17:24:18.976Z,99578.16
2023-11-19T17:29:24.793Z,99581.72
2023-11-19T17:34:28.117Z,99575.28
2023-11-19T17:39:31.851Z,99580.66
2023-11-19T17:44:42.858Z,99577.06
2023-11-19T17:49:46.512Z,99583.16
2023-11-19T17:54:49.864Z,99586.28
2023-11-19T17:59:55.316Z,99579.91
2023-11-19T18:04:58.905Z,99580.06
2023-11-19T18:10:05.162Z,99568.91
2023-11-19T18:15:16.378Z,99569.88
2023-11-19T18:20:20.176Z,99558.72
2023-11-19T18:25:30.371Z,99575.94
2023-11-19T18:30:38.634Z,99567.44
2023-11-19T18:35:42.160Z,99577.25
2023-11-19T18:40:45.916Z,99580.69
2023-11-19T18:45:54.275Z,99573.47
2023-11-19T18:50:58.318Z,99577.41
2023-11-19T18:56:02.101Z,99575.63
2023-11-19T19:01:10.059Z,99575.44
2023-11-19T19:06:15.788Z,99572.00
2023-11-19T19:11:21.202Z,99575.44
2023-11-19T19:16:26.081Z,99576.28
2023-11-19T19:21:32.787Z,99572.66
2023-11-19T19:26:37.195Z,99569.22
2023-11-19T19:31:42.317Z,99573.34
2023-11-19T19:36:46.493Z,99564.63
2023-11-19T19:41:53.423Z,99560.53
2023-11-19T19:46:58.484Z,99575.44
2023-11-19T19:52:01.999Z,99579.56
2023-11-19T19:57:07.102Z,99582.31
2023-11-19T20:02:12.263Z,99583.69
2023-11-19T20:07:16.507Z,99584.47
2023-11-19T20:12:20.688Z,99580.88
2023-11-19T20:17:26.008Z,99585.47
2023-11-19T20:22:31.179Z,99588.09
2023-11-19T20:27:34.710Z,99597.25
2023-11-19T20:32:39.653Z,99584.75
2023-11-19T20:37:43.098Z,99587.69
2023-11-19T20:42:46.586Z,99591.16
2023-11-19T20:47:51.729Z,99598.03
2023-11-19T20:52:57.739Z,99598.38
2023-11-19T20:58:01.840Z,99596.41
2023-11-19T21:03:09.379Z,99588.09
2023-11-19T21:08:14.772Z,99584.34
2023-11-19T21:13:19.701Z,99585.97
2023-11-19T21:18:24.535Z,99584.34
2023-11-19T21:23:28.387Z,99581.22
2023-11-19T21:28:34.276Z,99576.66
2023-11-19T21:33:39.016Z,99570.09
2023-11-19T21:38:45.378Z,99576.00
2023-11-19T21:48:57.275Z,99563.19
2023-11-19T21:54:03.745Z,99565.97
2023-11-19T21:59:07.464Z,99574.31
2023-11-19T22:04:12.596Z,99567.44
2023-11-19T22:09:16.894Z,99569.72
2023-11-19T22:14:22.752Z,99553.13
2023-11-19T22:19:27.739Z,99556.75
2023-11-19T22:24:32.267Z,99559.38
2023-11-19T22:29:37.018Z,99548.22
2023-11-19T22:34:41.853Z,99556.88
2023-11-19T22:39:45.810Z,99566.91
2023-11-19T22:44:49.063Z,99557.53
2023-11-19T22:49:53.745Z,99558.66
2023-11-19T22:54:57.321Z,99556.34
2023-11-19T23:00:00.630Z,99568.47
2023-11-19T23:05:08.609Z,99574.03
2023-11-19T23:10:13.084Z,99567.47
2023-11-19T23:15:16.684Z,99566.16
2023-11-19T23:20:22.363Z,99567.94
2023-11-19T23:25:25.784Z,99562.03
2023-11-19T23:30:29.011Z,99556.94
2023-11-19T23:35:35.580Z,99548.22
2023-11-19T23:40:38.706Z,99553.63
2023-11-19T23:45:42.070Z,99555.41
2023-11-19T23:55:52.867Z,99532.59
